createdAt,value
2017-10-31T00:03:57.725Z,1019.95
2017-10-31T00:13:57.688Z,1019.82
2017-10-31T00:23:58.601Z,1019.81
2017-10-31T00:33:58.729Z,1019.77
2017-10-31T00:44:00.132Z,1019.78
2017-10-31T00:53:58.764Z,1019.78
2017-10-31T01:03:57.684Z,1019.72
2017-10-31T01:13:57.758Z,1019.63
2017-10-31T01:23:59.756Z,1019.48
2017-10-31T01:33:58.799Z,1019.41
2017-10-31T01:43:57.728Z,1019.43
2017-10-31T01:53:57.806Z,1019.44
2017-10-31T02:03:57.796Z,1019.49
2017-10-31T02:13:59.776Z,1019.46
2017-10-31T02:23:57.796Z,1019.47
2017-10-31T02:33:57.855Z,1019.48
2017-10-31T02:43:57.804Z,1019.32
2017-10-31T02:53:58.820Z,1019.17
2017-10-31T03:03:58.870Z,1019.22
2017-10-31T03:13:57.918Z,1019.19
2017-10-31T03:23:58.890Z,1019.12
2017-10-31T03:33:57.831Z,1019.03
2017-10-31T03:43:57.891Z,1019.16
2017-10-31T03:53:58.860Z,1019.11
2017-10-31T04:03:57.809Z,1019.16
2017-10-31T04:13:58.895Z,1019.12
2017-10-31T04:23:58.850Z,1018.98
2017-10-31T04:33:57.887Z,1018.91
2017-10-31T04:43:57.951Z,1018.92
2017-10-31T04:53:57.937Z,1018.89
2017-10-31T05:03:59.943Z,1018.85
2017-10-31T05:13:57.944Z,1018.81
2017-10-31T05:23:58.952Z,1018.76
2017-10-31T05:33:57.970Z,1018.73
2017-10-31T05:43:59.209Z,1018.72
2017-10-31T05:53:59.001Z,1018.72
2017-10-31T06:03:57.945Z,1018.73
2017-10-31T06:13:58.012Z,1018.75
2017-10-31T06:23:57.970Z,1018.77
2017-10-31T06:33:58.052Z,1018.9
2017-10-31T06:43:58.005Z,1018.95
2017-10-31T06:53:58.060Z,1019.02
2017-10-31T07:03:58.011Z,1019.11
2017-10-31T07:13:58.067Z,1019.07
2017-10-31T07:23:58.040Z,1018.95
2017-10-31T07:33:57.988Z,1018.95
2017-10-31T07:43:58.080Z,1018.96
2017-10-31T07:53:58.031Z,1018.94
2017-10-31T08:03:58.099Z,1019.12
2017-10-31T08:13:58.053Z,1018.98
2017-10-31T08:23:58.113Z,1018.78
2017-10-31T08:33:59.107Z,1018.83
2017-10-31T08:43:58.140Z,1018.81
2017-10-31T08:53:58.105Z,1018.8
2017-10-31T09:03:58.147Z,1018.84
2017-10-31T09:13:58.127Z,1018.86
2017-10-31T09:23:58.192Z,1018.84
2017-10-31T09:33:59.173Z,1018.79
2017-10-31T09:43:58.432Z,1018.83
2017-10-31T09:53:58.172Z,1018.79
2017-10-31T10:03:58.128Z,1018.81
2017-10-31T10:13:58.247Z,1018.73
2017-10-31T10:23:58.340Z,1018.7
2017-10-31T10:33:58.211Z,1018.62
2017-10-31T10:43:58.259Z,1018.51
2017-10-31T10:53:58.261Z,1018.45
2017-10-31T11:03:58.359Z,1018.34
2017-10-31T11:13:58.286Z,1018.31
2017-10-31T11:23:58.291Z,1018.27
2017-10-31T11:33:58.252Z,1018.08
2017-10-31T11:43:58.317Z,1018
2017-10-31T11:53:58.271Z,1017.93
2017-10-31T12:03:58.333Z,1017.75
2017-10-31T12:13:58.324Z,1017.7
2017-10-31T12:23:58.263Z,1017.59
2017-10-31T12:33:58.345Z,1017.62
2017-10-31T12:43:58.304Z,1017.5
2017-10-31T12:53:59.373Z,1017.47
2017-10-31T13:03:58.293Z,1017.33
2017-10-31T13:13:58.373Z,1017.24
2017-10-31T13:23:58.343Z,1017.28
2017-10-31T13:33:58.396Z,1017.22
2017-10-31T13:43:58.431Z,1017.08
2017-10-31T13:54:05.850Z,1017.09
2017-10-31T14:03:58.464Z,1016.98
2017-10-31T14:13:58.575Z,1016.85
2017-10-31T14:34:00.568Z,1016.61
2017-10-31T14:43:58.508Z,1016.65
2017-10-31T14:53:58.631Z,1016.54
2017-10-31T15:03:58.591Z,1016.47
2017-10-31T15:14:02.178Z,1016.45
2017-10-31T15:23:58.568Z,1016.36
2017-10-31T15:33:58.530Z,1016.26
2017-10-31T15:43:58.643Z,1016.11
2017-10-31T15:53:58.544Z,1016.15
2017-10-31T16:03:58.653Z,1016.07
2017-10-31T16:13:58.620Z,1016.12
2017-10-31T16:23:58.698Z,1016.06
2017-10-31T16:33:58.636Z,1016.08
2017-10-31T16:43:58.664Z,1016.11
2017-10-31T16:53:58.678Z,1016.03
2017-10-31T17:03:58.733Z,1016.08
2017-10-31T17:13:58.687Z,1016.02
2017-10-31T17:23:58.773Z,1016.07
2017-10-31T17:33:58.681Z,1016.05
2017-10-31T17:43:59.076Z,1016.05
2017-10-31T17:53:58.732Z,1016.09
2017-10-31T18:03:59.664Z,1015.94
2017-10-31T18:13:58.703Z,1015.83
2017-10-31T18:23:58.703Z,1015.64
2017-10-31T19:04:00.817Z,1015.4
2017-10-31T19:14:00.757Z,1015.32
2017-10-31T19:34:04.393Z,1015.17
2017-10-31T19:43:58.843Z,1015.16
2017-10-31T19:53:58.742Z,1015.2
2017-10-31T20:03:58.836Z,1015.22
2017-10-31T20:13:58.829Z,1015.2
2017-10-31T20:23:58.812Z,1015.18
2017-10-31T20:33:58.810Z,1015.19
2017-10-31T20:43:58.859Z,1015.07
2017-10-31T20:53:58.951Z,1015.03
2017-10-31T21:03:58.864Z,1014.99
2017-10-31T21:13:58.819Z,1015.01
2017-10-31T21:23:58.909Z,1014.94
2017-10-31T21:33:58.857Z,1014.83
2017-10-31T21:44:00.075Z,1014.81
2017-10-31T21:53:58.872Z,1014.72
2017-10-31T22:03:58.835Z,1014.61
2017-10-31T22:13:58.918Z,1014.56
2017-10-31T22:23:58.871Z,1014.51
2017-10-31T22:33:58.932Z,1014.46
2017-10-31T22:43:58.877Z,1014.38
2017-10-31T22:53:58.965Z,1014.36
2017-10-31T23:03:58.970Z,1014.32
2017-10-31T23:13:58.891Z,1014.33
2017-10-31T23:23:58.954Z,1014.32
2017-10-31T23:33:58.969Z,1014.33
2017-10-31T23:43:59.007Z,1014.2
2017-10-31T23:53:59.079Z,1014.15
